Список аэропортов
Фактическая погода:

Число: 25
Время: 9:00
Температура: +22.7°C
Ветер: юго-западный 4 м/с
Видимость: 10 км
Давление: 761 мм рт. ст.
1015.2 гПа (+0.9)

небольшая облачность
Осадки за 12 часов: 0 мм
Время (МСК)Темп. СВетерВлажностьДавлениеОблачностьОсадки
09:00+23СЗ, 2 м/с66%1015 гПамалооблачно
10:00+24СЗ, 2 м/с62%1015 гПаясно
11:00+25З, 3 м/с57%1015 гПамалооблачно
12:00+26З, 4 м/с55%1015 гПамалооблачно
13:00+26СЗ, 4 м/с54%1015 гПамалооблачно
14:00+27СЗ, 4 м/с51%1015 гПамалооблачно
15:00+27СЗ, 4 м/с50%1015 гПамалооблачно
16:00+27СЗ, 4 м/с49%1015 гПамалооблачно
17:00+27СЗ, 4 м/с49%1015 гПамалооблачно
18:00+26СЗ, 3 м/с50%1015 гПамалооблачно
19:00+25З, 3 м/с52%1015 гПамалооблачно
20:00+24З, 3 м/с61%1015 гПаясно
21:00+21ЮЗ, 3 м/с73%1015 гПаясно
22:00+20Ю, 3 м/с79%1016 гПаясно
23:00+19Ю, 2 м/с84%1016 гПаясно
26 июня
00:00+18Ю, 2 м/с89%1016 гПаясно
01:00+17ЮВ, 2 м/с92%1016 гПаясно
02:00+17ЮВ, 2 м/с92%1016 гПаясно
03:00+16ЮВ, 2 м/с92%1016 гПаясно
04:00+16ЮВ, 2 м/с93%1015 гПаясно
05:00+15ЮВ, 2 м/с94%1016 гПаясно
06:00+16ЮВ, 3 м/с89%1015 гПаясно
07:00+19ЮВ, 2 м/с79%1015 гПаясно
08:00+23ЮВ, 2 м/с65%1015 гПаясно
09:00+26В, 2 м/с50%1015 гПаясно
10:00+26В, 2 м/с47%1015 гПаясно
11:00+27В, 1 м/с46%1015 гПамалооблачно
12:00+28В, 1 м/с44%1014 гПамалооблачно
13:00+28С, 1 м/с44%1014 гПас прояснениями
14:00+29СЗ, 2 м/с45%1014 гПас прояснениями
15:00+28З, 4 м/с47%1013 гПас прояснениями
16:00+28З, 5 м/с48%1013 гПамалооблачно
17:00+27З, 4 м/с48%1013 гПаясно
18:00+26З, 4 м/с49%1013 гПамалооблачно
19:00+25З, 4 м/с52%1012 гПамалооблачно
20:00+23З, 3 м/с54%1013 гПаясно
21:00+21СЗ, 2 м/с65%1013 гПамалооблачно
22:00+20Штиль 75%1013 гПаясно
23:00+19Штиль 76%1013 гПаясно
27 июня
00:00+18Штиль 79%1013 гПаясно
01:00+17Ю, 1 м/с81%1012 гПаясно
02:00+17ЮВ, 2 м/с80%1012 гПаясно
03:00+16ЮВ, 2 м/с84%1012 гПаясно
04:00+15ЮВ, 2 м/с87%1012 гПаясно
05:00+15ЮВ, 2 м/с87%1012 гПаясно
06:00+15ЮВ, 2 м/с84%1013 гПаясно
07:00+17ЮВ, 2 м/с77%1012 гПаясно
08:00+21В, 2 м/с61%1012 гПаясно
09:00+24В, 3 м/с51%1012 гПаясно